sensor_id;sensor_type;location;lat;lon;timestamp;P1;durP1;ratioP1;P2;durP2;ratioP2
8881;SDS011;4477;48.736;9.176;2023-05-07T00:01:41;6.90;;;6.03;;
8881;SDS011;4477;48.736;9.176;2023-05-07T00:04:09;6.37;;;5.77;;
8881;SDS011;4477;48.736;9.176;2023-05-07T00:06:36;7.07;;;6.37;;
8881;SDS011;4477;48.736;9.176;2023-05-07T00:09:04;7.27;;;6.57;;
8881;SDS011;4477;48.736;9.176;2023-05-07T00:11:32;6.10;;;5.60;;
8881;SDS011;4477;48.736;9.176;2023-05-07T00:14:00;6.33;;;4.90;;
8881;SDS011;4477;48.736;9.176;2023-05-07T00:16:27;6.77;;;5.50;;
8881;SDS011;4477;48.736;9.176;2023-05-07T00:18:54;5.97;;;5.37;;
8881;SDS011;4477;48.736;9.176;2023-05-07T00:21:21;6.60;;;5.83;;
8881;SDS011;4477;48.736;9.176;2023-05-07T00:23:51;6.20;;;5.60;;
8881;SDS011;4477;48.736;9.176;2023-05-07T00:26:20;5.97;;;5.40;;
8881;SDS011;4477;48.736;9.176;2023-05-07T00:28:47;5.70;;;5.10;;
8881;SDS011;4477;48.736;9.176;2023-05-07T00:31:14;6.77;;;5.40;;
8881;SDS011;4477;48.736;9.176;2023-05-07T00:33:41;5.50;;;5.00;;
8881;SDS011;4477;48.736;9.176;2023-05-07T00:36:08;5.50;;;5.00;;
8881;SDS011;4477;48.736;9.176;2023-05-07T00:38:35;5.13;;;4.73;;
8881;SDS011;4477;48.736;9.176;2023-05-07T00:41:02;7.50;;;5.43;;
8881;SDS011;4477;48.736;9.176;2023-05-07T00:43:31;7.37;;;5.43;;
8881;SDS011;4477;48.736;9.176;2023-05-07T00:45:58;5.13;;;4.63;;
8881;SDS011;4477;48.736;9.176;2023-05-07T00:48:26;6.20;;;5.30;;
8881;SDS011;4477;48.736;9.176;2023-05-07T00:50:53;6.63;;;4.97;;
8881;SDS011;4477;48.736;9.176;2023-05-07T00:53:20;5.90;;;5.07;;
8881;SDS011;4477;48.736;9.176;2023-05-07T00:55:48;5.53;;;4.87;;
8881;SDS011;4477;48.736;9.176;2023-05-07T00:58:15;5.60;;;5.10;;
8881;SDS011;4477;48.736;9.176;2023-05-07T01:00:44;6.17;;;5.30;;
8881;SDS011;4477;48.736;9.176;2023-05-07T07:04:10;3.63;;;3.33;;
8881;SDS011;4477;48.736;9.176;2023-05-07T07:06:37;5.87;;;3.43;;
8881;SDS011;4477;48.736;9.176;2023-05-07T07:09:07;4.63;;;2.90;;
8881;SDS011;4477;48.736;9.176;2023-05-07T07:11:34;4.43;;;2.80;;
8881;SDS011;4477;48.736;9.176;2023-05-07T07:14:01;5.10;;;3.42;;
8881;SDS011;4477;48.736;9.176;2023-05-07T07:16:31;4.80;;;3.30;;
8881;SDS011;4477;48.736;9.176;2023-05-07T07:18:58;4.15;;;3.60;;
8881;SDS011;4477;48.736;9.176;2023-05-07T07:21:27;4.00;;;3.25;;
8881;SDS011;4477;48.736;9.176;2023-05-07T07:23:55;3.90;;;3.47;;
8881;SDS011;4477;48.736;9.176;2023-05-07T07:26:22;3.10;;;2.90;;
8881;SDS011;4477;48.736;9.176;2023-05-07T07:28:49;3.17;;;2.80;;
8881;SDS011;4477;48.736;9.176;2023-05-07T07:31:16;5.05;;;2.92;;
8881;SDS011;4477;48.736;9.176;2023-05-07T07:33:43;3.83;;;2.78;;
8881;SDS011;4477;48.736;9.176;2023-05-07T07:36:09;4.63;;;3.17;;
8881;SDS011;4477;48.736;9.176;2023-05-07T07:38:38;3.35;;;2.88;;
8881;SDS011;4477;48.736;9.176;2023-05-07T07:41:04;3.53;;;2.92;;
8881;SDS011;4477;48.736;9.176;2023-05-07T07:43:32;3.30;;;3.00;;
8881;SDS011;4477;48.736;9.176;2023-05-07T07:45:59;3.25;;;2.67;;
8881;SDS011;4477;48.736;9.176;2023-05-07T07:48:25;3.88;;;3.00;;
8881;SDS011;4477;48.736;9.176;2023-05-07T07:50:52;3.70;;;2.97;;
8881;SDS011;4477;48.736;9.176;2023-05-07T07:53:19;3.55;;;2.75;;
8881;SDS011;4477;48.736;9.176;2023-05-07T07:55:47;3.50;;;3.10;;
8881;SDS011;4477;48.736;9.176;2023-05-07T07:58:14;2.78;;;2.58;;
8881;SDS011;4477;48.736;9.176;2023-05-07T08:00:41;4.05;;;2.90;;
8881;SDS011;4477;48.736;9.176;2023-05-07T08:03:09;4.13;;;3.00;;
8881;SDS011;4477;48.736;9.176;2023-05-07T08:05:36;2.90;;;2.70;;
8881;SDS011;4477;48.736;9.176;2023-05-07T08:08:04;3.05;;;2.75;;
8881;SDS011;4477;48.736;9.176;2023-05-07T08:10:31;3.53;;;2.70;;
8881;SDS011;4477;48.736;9.176;2023-05-07T08:13:01;2.97;;;2.65;;
8881;SDS011;4477;48.736;9.176;2023-05-07T08:15:28;3.53;;;2.80;;
8881;SDS011;4477;48.736;9.176;2023-05-07T08:17:55;3.97;;;3.10;;
8881;SDS011;4477;48.736;9.176;2023-05-07T08:20:23;4.15;;;3.55;;
8881;SDS011;4477;48.736;9.176;2023-05-07T08:22:50;4.22;;;3.15;;
8881;SDS011;4477;48.736;9.176;2023-05-07T08:25:17;5.47;;;3.10;;
8881;SDS011;4477;48.736;9.176;2023-05-07T08:27:44;5.00;;;3.08;;
8881;SDS011;4477;48.736;9.176;2023-05-07T08:30:13;3.58;;;3.28;;
8881;SDS011;4477;48.736;9.176;2023-05-07T08:32:41;3.60;;;3.22;;
8881;SDS011;4477;48.736;9.176;2023-05-07T08:35:08;3.85;;;3.00;;
8881;SDS011;4477;48.736;9.176;2023-05-07T08:37:35;11.65;;;3.00;;
8881;SDS011;4477;48.736;9.176;2023-05-07T08:40:02;3.72;;;3.33;;
8881;SDS011;4477;48.736;9.176;2023-05-07T08:42:29;3.50;;;3.10;;
8881;SDS011;4477;48.736;9.176;2023-05-07T08:44:58;4.68;;;3.53;;
8881;SDS011;4477;48.736;9.176;2023-05-07T08:47:29;3.55;;;3.25;;
8881;SDS011;4477;48.736;9.176;2023-05-07T08:50:01;3.40;;;3.10;;
8881;SDS011;4477;48.736;9.176;2023-05-07T08:52:29;2.90;;;2.65;;
8881;SDS011;4477;48.736;9.176;2023-05-07T08:54:56;3.25;;;3.00;;
8881;SDS011;4477;48.736;9.176;2023-05-07T08:57:22;4.18;;;3.00;;
8881;SDS011;4477;48.736;9.176;2023-05-07T08:59:50;2.80;;;2.47;;
8881;SDS011;4477;48.736;9.176;2023-05-07T09:02:17;4.15;;;2.70;;
8881;SDS011;4477;48.736;9.176;2023-05-07T09:04:45;3.58;;;3.03;;
8881;SDS011;4477;48.736;9.176;2023-05-07T09:07:12;3.53;;;2.70;;
8881;SDS011;4477;48.736;9.176;2023-05-07T09:09:39;2.70;;;2.38;;
8881;SDS011;4477;48.736;9.176;2023-05-07T09:12:06;3.10;;;2.80;;
8881;SDS011;4477;48.736;9.176;2023-05-07T09:14:33;2.50;;;2.30;;
8881;SDS011;4477;48.736;9.176;2023-05-07T09:17:00;3.45;;;3.08;;
8881;SDS011;4477;48.736;9.176;2023-05-07T09:19:27;3.30;;;2.58;;
8881;SDS011;4477;48.736;9.176;2023-05-07T09:21:59;3.47;;;2.42;;
8881;SDS011;4477;48.736;9.176;2023-05-07T09:24:26;4.43;;;2.65;;
8881;SDS011;4477;48.736;9.176;2023-05-07T09:26:57;2.65;;;2.45;;
8881;SDS011;4477;48.736;9.176;2023-05-07T09:29:24;4.00;;;2.40;;
8881;SDS011;4477;48.736;9.176;2023-05-07T09:31:53;5.28;;;2.45;;
8881;SDS011;4477;48.736;9.176;2023-05-07T09:34:20;2.97;;;2.35;;
8881;SDS011;4477;48.736;9.176;2023-05-07T09:36:47;3.08;;;2.28;;
8881;SDS011;4477;48.736;9.176;2023-05-07T09:39:15;3.17;;;2.38;;
8881;SDS011;4477;48.736;9.176;2023-05-07T09:41:43;2.30;;;2.00;;
8881;SDS011;4477;48.736;9.176;2023-05-07T09:44:10;3.67;;;2.10;;
8881;SDS011;4477;48.736;9.176;2023-05-07T09:46:38;2.60;;;2.40;;
8881;SDS011;4477;48.736;9.176;2023-05-07T09:49:06;2.88;;;2.08;;
8881;SDS011;4477;48.736;9.176;2023-05-07T09:51:39;1.70;;;1.60;;
8881;SDS011;4477;48.736;9.176;2023-05-07T09:54:11;2.28;;;2.08;;
8881;SDS011;4477;48.736;9.176;2023-05-07T09:56:40;3.58;;;2.20;;
8881;SDS011;4477;48.736;9.176;2023-05-07T09:59:07;2.45;;;2.10;;
8881;SDS011;4477;48.736;9.176;2023-05-07T10:01:36;3.10;;;1.90;;
8881;SDS011;4477;48.736;9.176;2023-05-07T10:04:03;2.40;;;2.10;;
8881;SDS011;4477;48.736;9.176;2023-05-07T10:06:33;3.90;;;2.15;;
8881;SDS011;4477;48.736;9.176;2023-05-07T10:09:01;2.72;;;2.20;;
8881;SDS011;4477;48.736;9.176;2023-05-07T10:11:28;3.45;;;1.80;;
8881;SDS011;4477;48.736;9.176;2023-05-07T10:13:57;2.97;;;2.08;;
8881;SDS011;4477;48.736;9.176;2023-05-07T10:16:24;3.53;;;2.20;;
8881;SDS011;4477;48.736;9.176;2023-05-07T10:18:52;2.35;;;1.90;;
8881;SDS011;4477;48.736;9.176;2023-05-07T10:21:20;5.10;;;2.10;;
8881;SDS011;4477;48.736;9.176;2023-05-07T10:23:50;3.03;;;1.50;;
8881;SDS011;4477;48.736;9.176;2023-05-07T10:28:46;4.75;;;2.28;;
8881;SDS011;4477;48.736;9.176;2023-05-07T10:31:18;2.00;;;1.70;;
8881;SDS011;4477;48.736;9.176;2023-05-07T10:33:48;2.78;;;1.80;;
8881;SDS011;4477;48.736;9.176;2023-05-07T10:36:16;3.15;;;2.20;;
8881;SDS011;4477;48.736;9.176;2023-05-07T10:38:44;3.70;;;1.90;;
8881;SDS011;4477;48.736;9.176;2023-05-07T10:41:11;2.40;;;1.70;;
8881;SDS011;4477;48.736;9.176;2023-05-07T10:43:40;2.22;;;1.70;;
8881;SDS011;4477;48.736;9.176;2023-05-07T10:46:11;2.58;;;1.90;;
8881;SDS011;4477;48.736;9.176;2023-05-07T10:51:26;4.10;;;2.05;;
8881;SDS011;4477;48.736;9.176;2023-05-07T10:56:35;2.25;;;1.90;;
8881;SDS011;4477;48.736;9.176;2023-05-07T11:01:49;2.85;;;1.67;;
8881;SDS011;4477;48.736;9.176;2023-05-07T11:04:17;2.25;;;2.00;;
8881;SDS011;4477;48.736;9.176;2023-05-07T11:15:05;2.22;;;1.80;;
8881;SDS011;4477;48.736;9.176;2023-05-07T11:17:35;2.05;;;1.90;;
8881;SDS011;4477;48.736;9.176;2023-05-07T11:20:18;2.08;;;1.80;;
8881;SDS011;4477;48.736;9.176;2023-05-07T11:22:45;2.60;;;1.60;;
8881;SDS011;4477;48.736;9.176;2023-05-07T11:25:17;3.55;;;1.70;;
8881;SDS011;4477;48.736;9.176;2023-05-07T11:27:44;3.70;;;1.85;;
8881;SDS011;4477;48.736;9.176;2023-05-07T11:30:17;3.50;;;2.03;;
8881;SDS011;4477;48.736;9.176;2023-05-07T11:32:48;2.00;;;1.80;;
8881;SDS011;4477;48.736;9.176;2023-05-07T11:35:15;4.30;;;1.95;;
8881;SDS011;4477;48.736;9.176;2023-05-07T11:37:43;3.60;;;2.05;;
8881;SDS011;4477;48.736;9.176;2023-05-07T11:40:11;4.55;;;2.00;;
8881;SDS011;4477;48.736;9.176;2023-05-07T11:42:39;2.60;;;2.20;;
8881;SDS011;4477;48.736;9.176;2023-05-07T11:45:08;2.83;;;2.25;;
8881;SDS011;4477;48.736;9.176;2023-05-07T11:47:36;3.60;;;2.15;;
8881;SDS011;4477;48.736;9.176;2023-05-07T11:50:04;2.90;;;2.20;;
8881;SDS011;4477;48.736;9.176;2023-05-07T11:52:33;3.85;;;2.10;;
8881;SDS011;4477;48.736;9.176;2023-05-07T11:55:00;2.72;;;1.90;;
8881;SDS011;4477;48.736;9.176;2023-05-07T11:57:28;7.50;;;2.20;;
8881;SDS011;4477;48.736;9.176;2023-05-07T11:59:56;2.85;;;2.05;;
8881;SDS011;4477;48.736;9.176;2023-05-07T12:02:23;3.38;;;2.10;;
8881;SDS011;4477;48.736;9.176;2023-05-07T12:04:52;2.38;;;2.08;;
8881;SDS011;4477;48.736;9.176;2023-05-07T12:07:19;2.17;;;1.88;;
8881;SDS011;4477;48.736;9.176;2023-05-07T12:09:47;2.22;;;1.83;;
8881;SDS011;4477;48.736;9.176;2023-05-07T12:12:14;5.63;;;2.10;;
8881;SDS011;4477;48.736;9.176;2023-05-07T12:14:43;2.33;;;1.90;;
8881;SDS011;4477;48.736;9.176;2023-05-07T12:17:10;4.38;;;2.20;;
8881;SDS011;4477;48.736;9.176;2023-05-07T12:19:39;4.80;;;2.40;;
8881;SDS011;4477;48.736;9.176;2023-05-07T12:22:10;2.50;;;2.20;;
8881;SDS011;4477;48.736;9.176;2023-05-07T12:24:44;3.50;;;2.00;;
8881;SDS011;4477;48.736;9.176;2023-05-07T12:27:11;3.33;;;1.77;;
8881;SDS011;4477;48.736;9.176;2023-05-07T12:29:38;2.33;;;1.50;;
8881;SDS011;4477;48.736;9.176;2023-05-07T12:32:12;2.17;;;1.23;;
8881;SDS011;4477;48.736;9.176;2023-05-07T12:34:40;1.80;;;1.23;;
8881;SDS011;4477;48.736;9.176;2023-05-07T12:37:08;2.40;;;1.63;;
8881;SDS011;4477;48.736;9.176;2023-05-07T12:39:35;3.80;;;1.77;;
8881;SDS011;4477;48.736;9.176;2023-05-07T12:42:02;3.27;;;2.57;;
8881;SDS011;4477;48.736;9.176;2023-05-07T12:44:30;4.40;;;2.30;;
8881;SDS011;4477;48.736;9.176;2023-05-07T12:46:57;1.43;;;1.20;;
8881;SDS011;4477;48.736;9.176;2023-05-07T12:49:25;3.77;;;1.90;;
8881;SDS011;4477;48.736;9.176;2023-05-07T12:51:53;1.57;;;1.00;;
8881;SDS011;4477;48.736;9.176;2023-05-07T12:54:29;3.77;;;1.30;;
8881;SDS011;4477;48.736;9.176;2023-05-07T12:57:02;2.77;;;1.80;;
8881;SDS011;4477;48.736;9.176;2023-05-07T12:59:33;14.33;;;3.37;;
8881;SDS011;4477;48.736;9.176;2023-05-07T13:02:00;35.90;;;5.90;;
8881;SDS011;4477;48.736;9.176;2023-05-07T13:04:27;11.50;;;3.70;;
8881;SDS011;4477;48.736;9.176;2023-05-07T13:06:54;35.20;;;5.93;;
8881;SDS011;4477;48.736;9.176;2023-05-07T13:09:22;21.07;;;4.40;;
8881;SDS011;4477;48.736;9.176;2023-05-07T13:11:57;13.23;;;5.20;;
8881;SDS011;4477;48.736;9.176;2023-05-07T13:14:32;12.17;;;4.20;;
8881;SDS011;4477;48.736;9.176;2023-05-07T13:16:59;16.37;;;6.20;;
8881;SDS011;4477;48.736;9.176;2023-05-07T13:19:26;5.67;;;3.53;;
8881;SDS011;4477;48.736;9.176;2023-05-07T13:21:53;8.80;;;4.53;;
8881;SDS011;4477;48.736;9.176;2023-05-07T13:24:21;8.47;;;3.53;;
8881;SDS011;4477;48.736;9.176;2023-05-07T13:26:48;14.53;;;4.20;;
8881;SDS011;4477;48.736;9.176;2023-05-07T13:29:16;10.47;;;3.90;;
8881;SDS011;4477;48.736;9.176;2023-05-07T13:31:43;3.47;;;2.50;;
8881;SDS011;4477;48.736;9.176;2023-05-07T13:34:11;4.83;;;2.97;;
8881;SDS011;4477;48.736;9.176;2023-05-07T13:36:38;4.37;;;3.40;;
8881;SDS011;4477;48.736;9.176;2023-05-07T13:39:07;3.47;;;2.60;;
8881;SDS011;4477;48.736;9.176;2023-05-07T13:41:34;4.37;;;2.80;;
8881;SDS011;4477;48.736;9.176;2023-05-07T13:44:01;3.30;;;2.03;;
8881;SDS011;4477;48.736;9.176;2023-05-07T13:46:30;3.00;;;2.70;;
8881;SDS011;4477;48.736;9.176;2023-05-07T13:48:58;3.73;;;2.13;;
8881;SDS011;4477;48.736;9.176;2023-05-07T13:51:25;7.03;;;2.77;;
8881;SDS011;4477;48.736;9.176;2023-05-07T13:53:53;2.90;;;2.00;;
8881;SDS011;4477;48.736;9.176;2023-05-07T13:56:20;5.87;;;2.83;;
8881;SDS011;4477;48.736;9.176;2023-05-07T13:58:48;4.40;;;3.13;;
8881;SDS011;4477;48.736;9.176;2023-05-07T14:01:15;6.30;;;3.40;;
8881;SDS011;4477;48.736;9.176;2023-05-07T14:03:45;6.60;;;3.80;;
8881;SDS011;4477;48.736;9.176;2023-05-07T14:06:12;5.63;;;4.73;;
8881;SDS011;4477;48.736;9.176;2023-05-07T14:08:39;5.33;;;4.73;;
8881;SDS011;4477;48.736;9.176;2023-05-07T14:11:07;4.53;;;4.13;;
8881;SDS011;4477;48.736;9.176;2023-05-07T14:13:34;5.77;;;4.80;;
8881;SDS011;4477;48.736;9.176;2023-05-07T14:16:01;5.83;;;4.53;;
8881;SDS011;4477;48.736;9.176;2023-05-07T14:18:28;5.27;;;3.60;;
8881;SDS011;4477;48.736;9.176;2023-05-07T14:20:57;5.90;;;3.83;;
8881;SDS011;4477;48.736;9.176;2023-05-07T14:23:24;5.10;;;4.10;;
8881;SDS011;4477;48.736;9.176;2023-05-07T14:25:52;5.53;;;4.40;;
8881;SDS011;4477;48.736;9.176;2023-05-07T14:28:21;6.17;;;4.77;;
8881;SDS011;4477;48.736;9.176;2023-05-07T14:30:48;4.40;;;4.00;;
8881;SDS011;4477;48.736;9.176;2023-05-07T14:33:15;6.50;;;4.10;;
8881;SDS011;4477;48.736;9.176;2023-05-07T14:35:42;4.53;;;4.13;;
8881;SDS011;4477;48.736;9.176;2023-05-07T14:38:15;5.97;;;4.10;;
8881;SDS011;4477;48.736;9.176;2023-05-07T14:40:44;5.23;;;3.90;;
8881;SDS011;4477;48.736;9.176;2023-05-07T14:43:12;4.10;;;3.73;;
8881;SDS011;4477;48.736;9.176;2023-05-07T14:45:39;6.27;;;3.77;;
8881;SDS011;4477;48.736;9.176;2023-05-07T14:48:06;5.23;;;3.73;;
8881;SDS011;4477;48.736;9.176;2023-05-07T14:50:37;4.53;;;3.80;;
8881;SDS011;4477;48.736;9.176;2023-05-07T14:53:04;4.43;;;3.70;;
8881;SDS011;4477;48.736;9.176;2023-05-07T14:55:42;5.53;;;3.63;;
8881;SDS011;4477;48.736;9.176;2023-05-07T14:58:10;5.67;;;4.03;;
8881;SDS011;4477;48.736;9.176;2023-05-07T15:00:39;6.23;;;4.10;;
8881;SDS011;4477;48.736;9.176;2023-05-07T15:03:07;7.03;;;4.93;;
8881;SDS011;4477;48.736;9.176;2023-05-07T15:05:34;5.07;;;4.43;;
8881;SDS011;4477;48.736;9.176;2023-05-07T15:08:02;5.70;;;4.40;;
8881;SDS011;4477;48.736;9.176;2023-05-07T15:10:29;5.13;;;4.20;;
8881;SDS011;4477;48.736;9.176;2023-05-07T15:12:58;5.20;;;4.43;;
8881;SDS011;4477;48.736;9.176;2023-05-07T15:15:27;5.07;;;4.37;;
8881;SDS011;4477;48.736;9.176;2023-05-07T15:17:54;4.03;;;3.20;;
8881;SDS011;4477;48.736;9.176;2023-05-07T15:20:21;3.77;;;3.10;;
8881;SDS011;4477;48.736;9.176;2023-05-07T15:22:48;4.70;;;3.10;;
8881;SDS011;4477;48.736;9.176;2023-05-07T15:25:15;3.87;;;3.10;;
8881;SDS011;4477;48.736;9.176;2023-05-07T15:27:43;3.87;;;3.33;;
8881;SDS011;4477;48.736;9.176;2023-05-07T15:30:12;4.60;;;4.20;;
8881;SDS011;4477;48.736;9.176;2023-05-07T15:32:40;4.67;;;4.00;;
8881;SDS011;4477;48.736;9.176;2023-05-07T15:35:08;5.37;;;4.57;;
8881;SDS011;4477;48.736;9.176;2023-05-07T15:37:36;3.80;;;3.50;;
8881;SDS011;4477;48.736;9.176;2023-05-07T15:40:03;5.40;;;4.43;;
8881;SDS011;4477;48.736;9.176;2023-05-07T15:42:33;5.50;;;4.50;;
8881;SDS011;4477;48.736;9.176;2023-05-07T15:45:00;3.77;;;3.47;;
8881;SDS011;4477;48.736;9.176;2023-05-07T15:47:33;4.10;;;3.60;;
8881;SDS011;4477;48.736;9.176;2023-05-07T15:50:13;3.70;;;3.40;;
8881;SDS011;4477;48.736;9.176;2023-05-07T15:52:48;4.93;;;3.83;;
8881;SDS011;4477;48.736;9.176;2023-05-07T15:58:40;6.23;;;3.60;;
8881;SDS011;4477;48.736;9.176;2023-05-07T16:01:10;3.70;;;3.40;;
8881;SDS011;4477;48.736;9.176;2023-05-07T18:57:52;23.40;;;20.00;;
8881;SDS011;4477;48.736;9.176;2023-05-07T19:00:19;20.80;;;18.80;;
8881;SDS011;4477;48.736;9.176;2023-05-07T19:02:46;20.63;;;18.50;;
8881;SDS011;4477;48.736;9.176;2023-05-07T19:05:13;21.90;;;19.57;;
8881;SDS011;4477;48.736;9.176;2023-05-07T19:07:43;22.83;;;20.53;;
8881;SDS011;4477;48.736;9.176;2023-05-07T19:10:15;21.67;;;19.67;;
8881;SDS011;4477;48.736;9.176;2023-05-07T19:12:42;22.40;;;20.30;;
8881;SDS011;4477;48.736;9.176;2023-05-07T19:15:11;20.10;;;18.30;;
8881;SDS011;4477;48.736;9.176;2023-05-07T19:17:38;19.50;;;17.53;;
8881;SDS011;4477;48.736;9.176;2023-05-07T19:20:06;21.50;;;19.30;;
8881;SDS011;4477;48.736;9.176;2023-05-07T19:22:33;21.50;;;19.20;;
8881;SDS011;4477;48.736;9.176;2023-05-07T19:25:00;19.90;;;17.90;;
8881;SDS011;4477;48.736;9.176;2023-05-07T19:27:27;19.23;;;17.23;;
8881;SDS011;4477;48.736;9.176;2023-05-07T19:29:55;20.93;;;17.77;;
8881;SDS011;4477;48.736;9.176;2023-05-07T19:32:24;20.67;;;18.67;;
8881;SDS011;4477;48.736;9.176;2023-05-07T19:34:52;20.40;;;17.00;;
8881;SDS011;4477;48.736;9.176;2023-05-07T19:37:20;19.40;;;17.43;;
8881;SDS011;4477;48.736;9.176;2023-05-07T19:39:49;21.60;;;19.30;;
8881;SDS011;4477;48.736;9.176;2023-05-07T19:42:17;20.43;;;18.33;;
8881;SDS011;4477;48.736;9.176;2023-05-07T19:44:45;20.00;;;18.10;;
8881;SDS011;4477;48.736;9.176;2023-05-07T19:47:12;23.30;;;19.27;;
8881;SDS011;4477;48.736;9.176;2023-05-07T19:49:41;20.33;;;18.23;;
8881;SDS011;4477;48.736;9.176;2023-05-07T19:52:09;22.37;;;19.90;;
8881;SDS011;4477;48.736;9.176;2023-05-07T19:54:36;21.40;;;17.73;;
8881;SDS011;4477;48.736;9.176;2023-05-07T19:57:03;21.57;;;19.37;;
8881;SDS011;4477;48.736;9.176;2023-05-07T19:59:30;22.30;;;19.90;;
8881;SDS011;4477;48.736;9.176;2023-05-07T20:01:58;22.30;;;19.97;;
8881;SDS011;4477;48.736;9.176;2023-05-07T20:04:25;23.10;;;20.00;;
8881;SDS011;4477;48.736;9.176;2023-05-07T20:06:58;21.43;;;19.13;;
8881;SDS011;4477;48.736;9.176;2023-05-07T20:09:25;21.10;;;17.90;;
8881;SDS011;4477;48.736;9.176;2023-05-07T20:11:53;22.93;;;19.40;;
8881;SDS011;4477;48.736;9.176;2023-05-07T20:14:21;19.70;;;17.67;;
8881;SDS011;4477;48.736;9.176;2023-05-07T20:16:48;22.20;;;20.00;;
8881;SDS011;4477;48.736;9.176;2023-05-07T20:19:15;23.53;;;21.10;;
8881;SDS011;4477;48.736;9.176;2023-05-07T20:21:43;23.47;;;21.03;;
8881;SDS011;4477;48.736;9.176;2023-05-07T20:24:12;25.53;;;21.87;;
8881;SDS011;4477;48.736;9.176;2023-05-07T20:26:43;27.80;;;25.00;;
8881;SDS011;4477;48.736;9.176;2023-05-07T20:29:10;27.53;;;23.67;;
8881;SDS011;4477;48.736;9.176;2023-05-07T20:31:38;25.13;;;22.50;;
8881;SDS011;4477;48.736;9.176;2023-05-07T20:34:05;23.10;;;20.70;;
8881;SDS011;4477;48.736;9.176;2023-05-07T20:36:33;31.87;;;26.90;;
8881;SDS011;4477;48.736;9.176;2023-05-07T20:39:00;36.40;;;27.37;;
8881;SDS011;4477;48.736;9.176;2023-05-07T20:41:29;32.57;;;29.00;;
8881;SDS011;4477;48.736;9.176;2023-05-07T20:43:56;43.03;;;34.77;;
8881;SDS011;4477;48.736;9.176;2023-05-07T20:46:24;33.33;;;29.20;;
8881;SDS011;4477;48.736;9.176;2023-05-07T20:48:51;34.00;;;30.40;;
8881;SDS011;4477;48.736;9.176;2023-05-07T20:51:18;30.47;;;27.07;;
8881;SDS011;4477;48.736;9.176;2023-05-07T21:01:59;37.07;;;29.93;;
8881;SDS011;4477;48.736;9.176;2023-05-07T21:04:26;38.27;;;29.90;;
8881;SDS011;4477;48.736;9.176;2023-05-07T21:06:53;34.90;;;29.40;;
8881;SDS011;4477;48.736;9.176;2023-05-07T21:09:21;36.10;;;28.90;;
8881;SDS011;4477;48.736;9.176;2023-05-07T21:11:48;32.53;;;25.00;;
8881;SDS011;4477;48.736;9.176;2023-05-07T21:14:15;32.60;;;26.27;;
8881;SDS011;4477;48.736;9.176;2023-05-07T21:16:42;36.63;;;27.00;;
8881;SDS011;4477;48.736;9.176;2023-05-07T21:19:11;27.97;;;23.70;;
8881;SDS011;4477;48.736;9.176;2023-05-07T21:21:38;35.27;;;27.67;;
8881;SDS011;4477;48.736;9.176;2023-05-07T21:24:09;33.30;;;28.13;;
8881;SDS011;4477;48.736;9.176;2023-05-07T21:26:36;33.20;;;27.63;;
8881;SDS011;4477;48.736;9.176;2023-05-07T21:29:03;34.30;;;27.67;;
8881;SDS011;4477;48.736;9.176;2023-05-07T21:31:30;30.27;;;26.37;;
8881;SDS011;4477;48.736;9.176;2023-05-07T21:33:57;35.60;;;28.83;;
8881;SDS011;4477;48.736;9.176;2023-05-07T21:36:27;32.43;;;27.33;;
8881;SDS011;4477;48.736;9.176;2023-05-07T21:38:55;31.20;;;27.70;;
8881;SDS011;4477;48.736;9.176;2023-05-07T21:41:22;35.50;;;30.80;;
8881;SDS011;4477;48.736;9.176;2023-05-07T21:43:51;36.70;;;29.40;;
8881;SDS011;4477;48.736;9.176;2023-05-07T21:46:18;44.90;;;32.47;;
8881;SDS011;4477;48.736;9.176;2023-05-07T21:48:45;44.67;;;33.67;;
8881;SDS011;4477;48.736;9.176;2023-05-07T21:51:12;39.73;;;32.03;;
8881;SDS011;4477;48.736;9.176;2023-05-07T21:53:41;37.87;;;29.67;;
8881;SDS011;4477;48.736;9.176;2023-05-07T21:56:08;32.13;;;28.43;;
8881;SDS011;4477;48.736;9.176;2023-05-07T21:58:35;40.23;;;31.70;;
8881;SDS011;4477;48.736;9.176;2023-05-07T22:01:02;44.40;;;33.20;;
8881;SDS011;4477;48.736;9.176;2023-05-07T22:03:30;50.53;;;35.87;;
8881;SDS011;4477;48.736;9.176;2023-05-07T22:05:57;58.30;;;38.27;;
8881;SDS011;4477;48.736;9.176;2023-05-07T22:08:24;43.37;;;34.50;;
8881;SDS011;4477;48.736;9.176;2023-05-07T22:10:53;38.33;;;30.67;;
8881;SDS011;4477;48.736;9.176;2023-05-07T22:13:20;41.63;;;30.90;;
8881;SDS011;4477;48.736;9.176;2023-05-07T22:15:47;37.07;;;28.93;;
8881;SDS011;4477;48.736;9.176;2023-05-07T22:18:14;53.20;;;36.43;;
8881;SDS011;4477;48.736;9.176;2023-05-07T22:20:41;57.60;;;40.03;;
8881;SDS011;4477;48.736;9.176;2023-05-07T22:23:08;47.57;;;35.03;;
8881;SDS011;4477;48.736;9.176;2023-05-07T22:25:35;66.43;;;39.53;;
8881;SDS011;4477;48.736;9.176;2023-05-07T22:28:04;66.60;;;43.77;;
8881;SDS011;4477;48.736;9.176;2023-05-07T22:30:31;51.87;;;39.27;;
8881;SDS011;4477;48.736;9.176;2023-05-07T22:32:58;72.27;;;44.70;;
8881;SDS011;4477;48.736;9.176;2023-05-07T22:35:25;63.83;;;41.03;;
8881;SDS011;4477;48.736;9.176;2023-05-07T22:37:53;58.93;;;41.57;;
8881;SDS011;4477;48.736;9.176;2023-05-07T22:40:20;59.90;;;41.10;;
8881;SDS011;4477;48.736;9.176;2023-05-07T22:42:47;56.47;;;40.70;;
8881;SDS011;4477;48.736;9.176;2023-05-07T22:45:16;55.07;;;39.07;;
8881;SDS011;4477;48.736;9.176;2023-05-07T22:47:43;54.90;;;38.97;;
8881;SDS011;4477;48.736;9.176;2023-05-07T22:50:10;44.40;;;36.67;;
8881;SDS011;4477;48.736;9.176;2023-05-07T22:52:37;49.13;;;36.57;;
8881;SDS011;4477;48.736;9.176;2023-05-07T22:55:05;61.00;;;40.33;;
8881;SDS011;4477;48.736;9.176;2023-05-07T22:57:32;98.90;;;46.97;;
8881;SDS011;4477;48.736;9.176;2023-05-07T22:59:59;96.23;;;49.40;;
8881;SDS011;4477;48.736;9.176;2023-05-07T23:02:28;86.90;;;47.83;;
8881;SDS011;4477;48.736;9.176;2023-05-07T23:04:57;73.57;;;46.50;;
8881;SDS011;4477;48.736;9.176;2023-05-07T23:07:24;78.50;;;46.83;;
8881;SDS011;4477;48.736;9.176;2023-05-07T23:09:51;80.03;;;47.30;;
8881;SDS011;4477;48.736;9.176;2023-05-07T23:12:19;80.57;;;47.77;;
8881;SDS011;4477;48.736;9.176;2023-05-07T23:14:46;79.13;;;49.57;;
8881;SDS011;4477;48.736;9.176;2023-05-07T23:17:13;67.50;;;44.13;;
8881;SDS011;4477;48.736;9.176;2023-05-07T23:19:42;68.17;;;44.67;;
8881;SDS011;4477;48.736;9.176;2023-05-07T23:22:09;58.73;;;41.63;;
8881;SDS011;4477;48.736;9.176;2023-05-07T23:24:36;71.53;;;43.03;;
8881;SDS011;4477;48.736;9.176;2023-05-07T23:27:03;75.60;;;46.40;;
8881;SDS011;4477;48.736;9.176;2023-05-07T23:29:31;79.90;;;48.80;;
8881;SDS011;4477;48.736;9.176;2023-05-07T23:31:58;82.93;;;48.63;;
8881;SDS011;4477;48.736;9.176;2023-05-07T23:34:25;83.97;;;47.27;;
8881;SDS011;4477;48.736;9.176;2023-05-07T23:36:54;76.83;;;46.53;;
8881;SDS011;4477;48.736;9.176;2023-05-07T23:39:21;64.53;;;43.23;;
8881;SDS011;4477;48.736;9.176;2023-05-07T23:41:48;104.27;;;49.03;;
8881;SDS011;4477;48.736;9.176;2023-05-07T23:44:15;91.93;;;49.67;;
8881;SDS011;4477;48.736;9.176;2023-05-07T23:46:43;117.80;;;51.57;;
8881;SDS011;4477;48.736;9.176;2023-05-07T23:49:10;118.37;;;52.83;;
8881;SDS011;4477;48.736;9.176;2023-05-07T23:51:37;169.23;;;52.13;;
8881;SDS011;4477;48.736;9.176;2023-05-07T23:54:06;80.40;;;42.80;;
8881;SDS011;4477;48.736;9.176;2023-05-07T23:56:33;90.10;;;44.17;;
8881;SDS011;4477;48.736;9.176;2023-05-07T23:59:00;79.73;;;44.30;;
